sensor_id;sensor_type;location;lat;lon;timestamp;temperature;humidity
2639;DHT22;1329;51.384;7.122;2022-09-14T00:00:52;19.80;92.80
2639;DHT22;1329;51.384;7.122;2022-09-14T00:03:19;19.80;93.40
2639;DHT22;1329;51.384;7.122;2022-09-14T00:05:46;19.70;94.00
2639;DHT22;1329;51.384;7.122;2022-09-14T00:08:14;19.70;94.70
2639;DHT22;1329;51.384;7.122;2022-09-14T00:10:42;19.70;95.20
2639;DHT22;1329;51.384;7.122;2022-09-14T00:13:11;19.70;96.10
2639;DHT22;1329;51.384;7.122;2022-09-14T00:15:42;19.70;96.50
2639;DHT22;1329;51.384;7.122;2022-09-14T00:18:11;19.70;97.20
2639;DHT22;1329;51.384;7.122;2022-09-14T00:20:38;19.70;98.10
2639;DHT22;1329;51.384;7.122;2022-09-14T00:23:05;19.70;98.70
2639;DHT22;1329;51.384;7.122;2022-09-14T00:25:32;19.70;99.00
2639;DHT22;1329;51.384;7.122;2022-09-14T00:27:59;19.70;99.20
2639;DHT22;1329;51.384;7.122;2022-09-14T00:30:27;19.80;99.90
2639;DHT22;1329;51.384;7.122;2022-09-14T00:32:55;19.80;99.90
2639;DHT22;1329;51.384;7.122;2022-09-14T00:35:22;19.80;99.90
2639;DHT22;1329;51.384;7.122;2022-09-14T00:37:50;19.80;99.90
2639;DHT22;1329;51.384;7.122;2022-09-14T00:40:18;19.80;99.90
2639;DHT22;1329;51.384;7.122;2022-09-14T00:42:45;19.80;99.90
2639;DHT22;1329;51.384;7.122;2022-09-14T00:45:15;19.90;99.90
2639;DHT22;1329;51.384;7.122;2022-09-14T00:47:46;19.90;99.90
2639;DHT22;1329;51.384;7.122;2022-09-14T00:50:17;19.90;99.90
2639;DHT22;1329;51.384;7.122;2022-09-14T00:52:47;19.90;99.90
2639;DHT22;1329;51.384;7.122;2022-09-14T00:55:16;19.90;99.90
2639;DHT22;1329;51.384;7.122;2022-09-14T00:57:47;19.90;99.90
2639;DHT22;1329;51.384;7.122;2022-09-14T01:00:18;19.90;99.90
2639;DHT22;1329;51.384;7.122;2022-09-14T01:02:47;19.90;99.90
2639;DHT22;1329;51.384;7.122;2022-09-14T01:05:18;19.90;99.90
2639;DHT22;1329;51.384;7.122;2022-09-14T01:07:55;19.90;99.90
2639;DHT22;1329;51.384;7.122;2022-09-14T01:10:38;19.90;99.00
2639;DHT22;1329;51.384;7.122;2022-09-14T01:13:32;19.80;98.80
2639;DHT22;1329;51.384;7.122;2022-09-14T01:16:11;19.80;99.00
2639;DHT22;1329;51.384;7.122;2022-09-14T01:18:46;19.80;99.00
2639;DHT22;1329;51.384;7.122;2022-09-14T01:21:20;19.80;99.10
2639;DHT22;1329;51.384;7.122;2022-09-14T01:23:55;19.80;98.80
2639;DHT22;1329;51.384;7.122;2022-09-14T01:29:49;19.80;98.00
2639;DHT22;1329;51.384;7.122;2022-09-14T01:32:24;19.70;98.50
2639;DHT22;1329;51.384;7.122;2022-09-14T01:34:56;19.70;99.20
2639;DHT22;1329;51.384;7.122;2022-09-14T01:37:34;19.60;99.20
2639;DHT22;1329;51.384;7.122;2022-09-14T01:40:08;19.70;99.20
2639;DHT22;1329;51.384;7.122;2022-09-14T01:42:39;19.70;99.40
2639;DHT22;1329;51.384;7.122;2022-09-14T01:45:11;19.60;99.90
2639;DHT22;1329;51.384;7.122;2022-09-14T01:47:44;19.60;99.90
2639;DHT22;1329;51.384;7.122;2022-09-14T01:50:18;19.60;99.90
2639;DHT22;1329;51.384;7.122;2022-09-14T01:52:50;19.60;99.90
2639;DHT22;1329;51.384;7.122;2022-09-14T01:55:23;19.60;99.90
2639;DHT22;1329;51.384;7.122;2022-09-14T01:57:56;19.70;99.90
2639;DHT22;1329;51.384;7.122;2022-09-14T02:00:27;19.60;99.90
2639;DHT22;1329;51.384;7.122;2022-09-14T02:02:58;19.60;99.90
2639;DHT22;1329;51.384;7.122;2022-09-14T02:05:33;19.60;99.90
2639;DHT22;1329;51.384;7.122;2022-09-14T02:08:03;19.60;99.90
2639;DHT22;1329;51.384;7.122;2022-09-14T02:10:31;19.60;99.90
2639;DHT22;1329;51.384;7.122;2022-09-14T02:12:59;19.60;99.90
2639;DHT22;1329;51.384;7.122;2022-09-14T02:15:27;19.50;99.90
2639;DHT22;1329;51.384;7.122;2022-09-14T02:17:54;19.60;99.90
2639;DHT22;1329;51.384;7.122;2022-09-14T02:20:24;19.60;99.90
2639;DHT22;1329;51.384;7.122;2022-09-14T02:22:55;19.60;99.90
2639;DHT22;1329;51.384;7.122;2022-09-14T02:25:21;19.60;99.90
2639;DHT22;1329;51.384;7.122;2022-09-14T02:27:49;19.60;99.90
2639;DHT22;1329;51.384;7.122;2022-09-14T02:30:17;19.60;99.90
2639;DHT22;1329;51.384;7.122;2022-09-14T02:32:54;19.60;99.90
2639;DHT22;1329;51.384;7.122;2022-09-14T02:35:31;19.60;99.90
2639;DHT22;1329;51.384;7.122;2022-09-14T02:38:09;19.60;99.90
2639;DHT22;1329;51.384;7.122;2022-09-14T02:40:42;19.50;99.90
2639;DHT22;1329;51.384;7.122;2022-09-14T02:43:25;19.50;99.90
2639;DHT22;1329;51.384;7.122;2022-09-14T02:46:03;19.50;99.90
2639;DHT22;1329;51.384;7.122;2022-09-14T02:48:39;19.50;99.90
2639;DHT22;1329;51.384;7.122;2022-09-14T02:51:16;19.50;99.90
2639;DHT22;1329;51.384;7.122;2022-09-14T02:53:52;19.50;99.90
2639;DHT22;1329;51.384;7.122;2022-09-14T02:56:24;19.50;99.90
2639;DHT22;1329;51.384;7.122;2022-09-14T02:58:52;19.40;99.90
2639;DHT22;1329;51.384;7.122;2022-09-14T03:01:21;19.40;99.90
2639;DHT22;1329;51.384;7.122;2022-09-14T03:03:50;19.40;99.90
2639;DHT22;1329;51.384;7.122;2022-09-14T03:06:17;19.30;99.90
2639;DHT22;1329;51.384;7.122;2022-09-14T03:08:44;19.30;99.90
2639;DHT22;1329;51.384;7.122;2022-09-14T03:11:11;19.30;99.90
2639;DHT22;1329;51.384;7.122;2022-09-14T03:13:38;19.20;99.90
2639;DHT22;1329;51.384;7.122;2022-09-14T03:16:06;19.20;99.90
2639;DHT22;1329;51.384;7.122;2022-09-14T03:18:34;19.10;99.90
2639;DHT22;1329;51.384;7.122;2022-09-14T03:21:04;19.10;99.90
2639;DHT22;1329;51.384;7.122;2022-09-14T03:23:35;19.00;99.90
2639;DHT22;1329;51.384;7.122;2022-09-14T03:26:06;19.00;99.90
2639;DHT22;1329;51.384;7.122;2022-09-14T03:28:34;18.90;99.90
2639;DHT22;1329;51.384;7.122;2022-09-14T03:31:03;18.90;99.90
2639;DHT22;1329;51.384;7.122;2022-09-14T03:33:31;18.80;99.90
2639;DHT22;1329;51.384;7.122;2022-09-14T03:35:59;18.80;99.90
2639;DHT22;1329;51.384;7.122;2022-09-14T03:38:27;18.80;99.90
2639;DHT22;1329;51.384;7.122;2022-09-14T03:40:54;18.70;99.90
2639;DHT22;1329;51.384;7.122;2022-09-14T03:43:22;18.80;99.90
2639;DHT22;1329;51.384;7.122;2022-09-14T03:45:49;18.70;99.90
2639;DHT22;1329;51.384;7.122;2022-09-14T03:48:16;18.70;99.90
2639;DHT22;1329;51.384;7.122;2022-09-14T03:50:42;18.60;99.90
2639;DHT22;1329;51.384;7.122;2022-09-14T03:53:09;18.60;99.90
2639;DHT22;1329;51.384;7.122;2022-09-14T03:55:40;18.60;99.90
2639;DHT22;1329;51.384;7.122;2022-09-14T03:58:07;18.60;99.90
2639;DHT22;1329;51.384;7.122;2022-09-14T04:00:34;18.60;99.90
2639;DHT22;1329;51.384;7.122;2022-09-14T04:03:01;18.60;99.90
2639;DHT22;1329;51.384;7.122;2022-09-14T04:05:28;18.60;99.90
2639;DHT22;1329;51.384;7.122;2022-09-14T04:07:55;18.60;99.90
2639;DHT22;1329;51.384;7.122;2022-09-14T04:10:22;18.60;99.90
2639;DHT22;1329;51.384;7.122;2022-09-14T04:12:50;18.60;99.90
2639;DHT22;1329;51.384;7.122;2022-09-14T04:15:17;18.60;99.90
2639;DHT22;1329;51.384;7.122;2022-09-14T04:17:45;18.50;99.90
2639;DHT22;1329;51.384;7.122;2022-09-14T04:20:12;18.50;99.90
2639;DHT22;1329;51.384;7.122;2022-09-14T04:22:39;18.50;99.90
2639;DHT22;1329;51.384;7.122;2022-09-14T04:25:07;18.50;99.90
2639;DHT22;1329;51.384;7.122;2022-09-14T04:27:34;18.50;99.90
2639;DHT22;1329;51.384;7.122;2022-09-14T04:30:03;18.50;99.90
2639;DHT22;1329;51.384;7.122;2022-09-14T04:32:30;18.50;99.90
2639;DHT22;1329;51.384;7.122;2022-09-14T04:34:57;18.50;99.90
2639;DHT22;1329;51.384;7.122;2022-09-14T04:37:25;18.40;99.90
2639;DHT22;1329;51.384;7.122;2022-09-14T04:39:52;18.40;99.90
2639;DHT22;1329;51.384;7.122;2022-09-14T04:42:18;18.40;99.90
2639;DHT22;1329;51.384;7.122;2022-09-14T04:44:45;18.40;99.90
2639;DHT22;1329;51.384;7.122;2022-09-14T04:47:13;18.40;99.90
2639;DHT22;1329;51.384;7.122;2022-09-14T04:49:40;18.40;99.90
2639;DHT22;1329;51.384;7.122;2022-09-14T04:52:07;18.40;99.90
2639;DHT22;1329;51.384;7.122;2022-09-14T04:54:34;18.40;99.90
2639;DHT22;1329;51.384;7.122;2022-09-14T04:57:01;18.30;99.90
2639;DHT22;1329;51.384;7.122;2022-09-14T04:59:28;18.30;99.90
2639;DHT22;1329;51.384;7.122;2022-09-14T05:01:55;18.40;99.90
2639;DHT22;1329;51.384;7.122;2022-09-14T05:04:23;18.30;99.90
2639;DHT22;1329;51.384;7.122;2022-09-14T05:06:50;18.30;99.90
2639;DHT22;1329;51.384;7.122;2022-09-14T05:09:17;18.30;99.90
2639;DHT22;1329;51.384;7.122;2022-09-14T05:11:45;18.30;99.90
2639;DHT22;1329;51.384;7.122;2022-09-14T05:14:14;18.30;99.90
2639;DHT22;1329;51.384;7.122;2022-09-14T05:16:42;18.20;99.90
2639;DHT22;1329;51.384;7.122;2022-09-14T05:19:12;18.20;99.90
2639;DHT22;1329;51.384;7.122;2022-09-14T05:21:41;18.20;99.90
2639;DHT22;1329;51.384;7.122;2022-09-14T05:24:13;18.20;99.90
2639;DHT22;1329;51.384;7.122;2022-09-14T05:26:42;18.20;99.90
2639;DHT22;1329;51.384;7.122;2022-09-14T05:29:11;18.20;99.90
2639;DHT22;1329;51.384;7.122;2022-09-14T05:31:39;18.10;99.90
2639;DHT22;1329;51.384;7.122;2022-09-14T05:34:07;18.20;99.90
2639;DHT22;1329;51.384;7.122;2022-09-14T05:36:35;18.10;99.90
2639;DHT22;1329;51.384;7.122;2022-09-14T05:39:04;18.10;99.90
2639;DHT22;1329;51.384;7.122;2022-09-14T05:41:31;18.20;99.90
2639;DHT22;1329;51.384;7.122;2022-09-14T05:43:58;18.10;99.90
2639;DHT22;1329;51.384;7.122;2022-09-14T05:46:25;18.10;99.90
2639;DHT22;1329;51.384;7.122;2022-09-14T05:48:52;18.10;99.90
2639;DHT22;1329;51.384;7.122;2022-09-14T05:51:22;18.10;99.90
2639;DHT22;1329;51.384;7.122;2022-09-14T05:53:51;18.10;99.90
2639;DHT22;1329;51.384;7.122;2022-09-14T05:56:23;18.10;99.90
2639;DHT22;1329;51.384;7.122;2022-09-14T05:58:51;18.10;99.90
2639;DHT22;1329;51.384;7.122;2022-09-14T06:01:21;18.00;99.90
2639;DHT22;1329;51.384;7.122;2022-09-14T06:03:49;18.10;99.90
2639;DHT22;1329;51.384;7.122;2022-09-14T06:06:19;18.10;99.90
2639;DHT22;1329;51.384;7.122;2022-09-14T06:08:48;18.00;99.90
2639;DHT22;1329;51.384;7.122;2022-09-14T06:11:18;18.00;99.90
2639;DHT22;1329;51.384;7.122;2022-09-14T06:13:47;18.10;99.90
2639;DHT22;1329;51.384;7.122;2022-09-14T06:16:17;18.00;99.90
2639;DHT22;1329;51.384;7.122;2022-09-14T06:18:45;18.00;99.90
2639;DHT22;1329;51.384;7.122;2022-09-14T06:21:15;18.00;99.90
2639;DHT22;1329;51.384;7.122;2022-09-14T06:23:43;18.00;99.90
2639;DHT22;1329;51.384;7.122;2022-09-14T06:26:11;18.00;99.90
2639;DHT22;1329;51.384;7.122;2022-09-14T06:28:38;18.00;99.90
2639;DHT22;1329;51.384;7.122;2022-09-14T06:31:09;17.90;99.90
2639;DHT22;1329;51.384;7.122;2022-09-14T06:33:37;18.00;99.90
2639;DHT22;1329;51.384;7.122;2022-09-14T06:36:10;18.00;99.90
2639;DHT22;1329;51.384;7.122;2022-09-14T06:38:39;17.90;99.90
2639;DHT22;1329;51.384;7.122;2022-09-14T06:41:08;18.00;99.90
2639;DHT22;1329;51.384;7.122;2022-09-14T06:43:40;17.90;99.90
2639;DHT22;1329;51.384;7.122;2022-09-14T06:46:11;17.90;99.90
2639;DHT22;1329;51.384;7.122;2022-09-14T06:48:42;18.00;99.90
2639;DHT22;1329;51.384;7.122;2022-09-14T06:51:13;17.90;99.90
2639;DHT22;1329;51.384;7.122;2022-09-14T06:53:42;17.90;99.90
2639;DHT22;1329;51.384;7.122;2022-09-14T06:56:09;18.00;99.90
2639;DHT22;1329;51.384;7.122;2022-09-14T06:58:37;18.00;99.90
2639;DHT22;1329;51.384;7.122;2022-09-14T07:01:06;17.90;99.90
2639;DHT22;1329;51.384;7.122;2022-09-14T07:03:37;17.90;99.90
2639;DHT22;1329;51.384;7.122;2022-09-14T07:06:07;17.90;99.90
2639;DHT22;1329;51.384;7.122;2022-09-14T07:08:37;17.90;99.90
2639;DHT22;1329;51.384;7.122;2022-09-14T07:11:05;17.90;99.90
2639;DHT22;1329;51.384;7.122;2022-09-14T07:13:34;17.90;99.90
2639;DHT22;1329;51.384;7.122;2022-09-14T07:16:01;17.80;99.90
2639;DHT22;1329;51.384;7.122;2022-09-14T07:18:29;17.80;99.90
2639;DHT22;1329;51.384;7.122;2022-09-14T07:21:02;17.80;99.90
2639;DHT22;1329;51.384;7.122;2022-09-14T07:23:29;17.70;99.90
2639;DHT22;1329;51.384;7.122;2022-09-14T07:26:01;17.70;99.90
2639;DHT22;1329;51.384;7.122;2022-09-14T07:28:30;17.70;99.90
2639;DHT22;1329;51.384;7.122;2022-09-14T07:30:57;17.70;99.90
2639;DHT22;1329;51.384;7.122;2022-09-14T07:33:25;17.60;99.90
2639;DHT22;1329;51.384;7.122;2022-09-14T07:35:52;17.70;99.90
2639;DHT22;1329;51.384;7.122;2022-09-14T07:38:20;17.70;99.90
2639;DHT22;1329;51.384;7.122;2022-09-14T07:40:48;17.70;99.90
2639;DHT22;1329;51.384;7.122;2022-09-14T07:43:15;17.70;99.90
2639;DHT22;1329;51.384;7.122;2022-09-14T07:45:42;17.70;99.90
2639;DHT22;1329;51.384;7.122;2022-09-14T07:48:09;17.70;99.90
2639;DHT22;1329;51.384;7.122;2022-09-14T07:50:36;17.70;99.90
2639;DHT22;1329;51.384;7.122;2022-09-14T07:53:03;17.70;99.90
2639;DHT22;1329;51.384;7.122;2022-09-14T07:55:31;17.70;99.90
2639;DHT22;1329;51.384;7.122;2022-09-14T07:57:58;17.70;99.90
2639;DHT22;1329;51.384;7.122;2022-09-14T08:00:26;17.70;99.90
2639;DHT22;1329;51.384;7.122;2022-09-14T08:02:53;17.70;99.90
2639;DHT22;1329;51.384;7.122;2022-09-14T08:05:23;17.70;99.90
2639;DHT22;1329;51.384;7.122;2022-09-14T08:07:52;17.70;99.90
2639;DHT22;1329;51.384;7.122;2022-09-14T08:10:20;17.70;99.90
2639;DHT22;1329;51.384;7.122;2022-09-14T08:12:51;17.70;99.90
2639;DHT22;1329;51.384;7.122;2022-09-14T08:15:18;17.70;99.90
2639;DHT22;1329;51.384;7.122;2022-09-14T08:17:46;17.70;99.90
2639;DHT22;1329;51.384;7.122;2022-09-14T08:20:14;17.70;99.90
2639;DHT22;1329;51.384;7.122;2022-09-14T08:22:41;17.70;99.90
2639;DHT22;1329;51.384;7.122;2022-09-14T08:25:09;17.60;99.90
2639;DHT22;1329;51.384;7.122;2022-09-14T08:27:37;17.60;99.90
2639;DHT22;1329;51.384;7.122;2022-09-14T08:30:07;17.60;99.90
2639;DHT22;1329;51.384;7.122;2022-09-14T08:32:37;17.60;99.90
2639;DHT22;1329;51.384;7.122;2022-09-14T08:35:05;17.60;99.90
2639;DHT22;1329;51.384;7.122;2022-09-14T08:37:33;17.60;99.90
2639;DHT22;1329;51.384;7.122;2022-09-14T08:40:00;17.60;99.90
2639;DHT22;1329;51.384;7.122;2022-09-14T08:42:28;17.60;99.90
2639;DHT22;1329;51.384;7.122;2022-09-14T08:44:59;17.60;99.90
2639;DHT22;1329;51.384;7.122;2022-09-14T08:47:31;17.60;99.90
2639;DHT22;1329;51.384;7.122;2022-09-14T08:50:04;17.60;99.90
2639;DHT22;1329;51.384;7.122;2022-09-14T08:52:34;17.60;99.90
2639;DHT22;1329;51.384;7.122;2022-09-14T08:55:16;17.60;99.90
2639;DHT22;1329;51.384;7.122;2022-09-14T08:57:50;17.60;99.90
2639;DHT22;1329;51.384;7.122;2022-09-14T09:00:24;17.50;99.90
2639;DHT22;1329;51.384;7.122;2022-09-14T09:03:32;17.50;99.90
2639;DHT22;1329;51.384;7.122;2022-09-14T09:06:12;17.50;99.90
2639;DHT22;1329;51.384;7.122;2022-09-14T09:08:48;17.50;99.90
2639;DHT22;1329;51.384;7.122;2022-09-14T09:11:21;17.50;99.90
2639;DHT22;1329;51.384;7.122;2022-09-14T09:13:53;17.50;99.90
2639;DHT22;1329;51.384;7.122;2022-09-14T09:16:23;17.50;99.90
2639;DHT22;1329;51.384;7.122;2022-09-14T09:18:56;17.50;99.90
2639;DHT22;1329;51.384;7.122;2022-09-14T09:21:31;17.50;99.90
2639;DHT22;1329;51.384;7.122;2022-09-14T09:24:09;17.50;99.90
2639;DHT22;1329;51.384;7.122;2022-09-14T09:26:41;17.50;99.90
2639;DHT22;1329;51.384;7.122;2022-09-14T09:29:09;17.50;99.90
2639;DHT22;1329;51.384;7.122;2022-09-14T09:31:39;17.40;99.90
2639;DHT22;1329;51.384;7.122;2022-09-14T09:34:12;17.40;99.90
2639;DHT22;1329;51.384;7.122;2022-09-14T09:36:44;17.40;99.90
2639;DHT22;1329;51.384;7.122;2022-09-14T09:39:13;17.40;99.90
2639;DHT22;1329;51.384;7.122;2022-09-14T09:41:43;17.40;99.90
2639;DHT22;1329;51.384;7.122;2022-09-14T09:44:13;17.40;99.90
2639;DHT22;1329;51.384;7.122;2022-09-14T09:46:45;17.30;99.90
2639;DHT22;1329;51.384;7.122;2022-09-14T09:49:19;17.20;99.90
2639;DHT22;1329;51.384;7.122;2022-09-14T09:51:47;17.30;99.90
2639;DHT22;1329;51.384;7.122;2022-09-14T09:54:22;17.30;99.90
2639;DHT22;1329;51.384;7.122;2022-09-14T09:56:52;17.30;99.90
2639;DHT22;1329;51.384;7.122;2022-09-14T09:59:27;17.30;99.90
2639;DHT22;1329;51.384;7.122;2022-09-14T10:02:21;17.30;99.90
2639;DHT22;1329;51.384;7.122;2022-09-14T10:05:18;17.20;99.90
2639;DHT22;1329;51.384;7.122;2022-09-14T10:07:53;17.30;99.90
2639;DHT22;1329;51.384;7.122;2022-09-14T10:10:24;17.30;99.90
2639;DHT22;1329;51.384;7.122;2022-09-14T10:12:54;17.20;99.90
2639;DHT22;1329;51.384;7.122;2022-09-14T10:15:23;17.20;99.90
2639;DHT22;1329;51.384;7.122;2022-09-14T10:18:05;17.20;99.90
2639;DHT22;1329;51.384;7.122;2022-09-14T10:20:36;17.20;99.90
2639;DHT22;1329;51.384;7.122;2022-09-14T10:23:21;17.20;99.90
2639;DHT22;1329;51.384;7.122;2022-09-14T10:25:51;17.20;99.90
2639;DHT22;1329;51.384;7.122;2022-09-14T10:28:21;17.20;99.90
2639;DHT22;1329;51.384;7.122;2022-09-14T10:30:52;17.20;99.90
2639;DHT22;1329;51.384;7.122;2022-09-14T10:33:23;17.20;99.90
2639;DHT22;1329;51.384;7.122;2022-09-14T10:35:58;17.20;99.90
2639;DHT22;1329;51.384;7.122;2022-09-14T10:38:32;17.20;99.90
2639;DHT22;1329;51.384;7.122;2022-09-14T10:41:19;17.20;99.90
2639;DHT22;1329;51.384;7.122;2022-09-14T10:44:06;17.30;99.90
2639;DHT22;1329;51.384;7.122;2022-09-14T10:46:56;17.20;99.90
2639;DHT22;1329;51.384;7.122;2022-09-14T10:49:37;17.30;99.90
2639;DHT22;1329;51.384;7.122;2022-09-14T10:52:22;17.30;99.90
2639;DHT22;1329;51.384;7.122;2022-09-14T10:55:05;17.30;99.90
2639;DHT22;1329;51.384;7.122;2022-09-14T10:57:49;17.30;99.90
2639;DHT22;1329;51.384;7.122;2022-09-14T11:00:21;17.20;99.90
2639;DHT22;1329;51.384;7.122;2022-09-14T11:03:02;17.30;99.90
2639;DHT22;1329;51.384;7.122;2022-09-14T11:05:45;17.30;99.90
2639;DHT22;1329;51.384;7.122;2022-09-14T11:08:24;17.30;99.90
2639;DHT22;1329;51.384;7.122;2022-09-14T11:11:09;17.30;99.90
2639;DHT22;1329;51.384;7.122;2022-09-14T11:13:59;17.30;99.90
2639;DHT22;1329;51.384;7.122;2022-09-14T11:16:50;17.30;99.90
2639;DHT22;1329;51.384;7.122;2022-09-14T11:19:30;17.30;99.90
2639;DHT22;1329;51.384;7.122;2022-09-14T11:22:08;17.30;99.90
2639;DHT22;1329;51.384;7.122;2022-09-14T11:24:42;17.20;99.90
2639;DHT22;1329;51.384;7.122;2022-09-14T11:27:18;17.30;99.90
2639;DHT22;1329;51.384;7.122;2022-09-14T11:29:51;17.20;99.90
2639;DHT22;1329;51.384;7.122;2022-09-14T11:32:23;17.20;99.90
2639;DHT22;1329;51.384;7.122;2022-09-14T11:34:57;17.20;99.90
2639;DHT22;1329;51.384;7.122;2022-09-14T11:37:34;17.20;99.90
2639;DHT22;1329;51.384;7.122;2022-09-14T11:40:15;17.10;99.90
2639;DHT22;1329;51.384;7.122;2022-09-14T11:42:51;17.20;99.90
2639;DHT22;1329;51.384;7.122;2022-09-14T11:45:26;17.10;99.90
2639;DHT22;1329;51.384;7.122;2022-09-14T11:48:07;17.10;99.90
2639;DHT22;1329;51.384;7.122;2022-09-14T11:50:36;17.10;99.90
2639;DHT22;1329;51.384;7.122;2022-09-14T11:53:09;17.10;99.90
2639;DHT22;1329;51.384;7.122;2022-09-14T11:55:44;17.00;99.90
2639;DHT22;1329;51.384;7.122;2022-09-14T11:58:18;17.10;99.90
2639;DHT22;1329;51.384;7.122;2022-09-14T12:04:14;17.10;99.90
2639;DHT22;1329;51.384;7.122;2022-09-14T12:06:55;17.20;99.90
2639;DHT22;1329;51.384;7.122;2022-09-14T12:09:40;17.20;99.90
2639;DHT22;1329;51.384;7.122;2022-09-14T12:12:36;17.20;99.90
2639;DHT22;1329;51.384;7.122;2022-09-14T12:15:16;17.20;99.90
2639;DHT22;1329;51.384;7.122;2022-09-14T12:17:47;17.20;99.90
2639;DHT22;1329;51.384;7.122;2022-09-14T12:20:30;17.20;99.90
2639;DHT22;1329;51.384;7.122;2022-09-14T12:23:19;17.30;99.90
2639;DHT22;1329;51.384;7.122;2022-09-14T12:25:59;17.20;99.90
2639;DHT22;1329;51.384;7.122;2022-09-14T12:28:43;17.20;99.90
2639;DHT22;1329;51.384;7.122;2022-09-14T12:32:00;17.30;99.90
2639;DHT22;1329;51.384;7.122;2022-09-14T12:34:42;17.30;99.90
2639;DHT22;1329;51.384;7.122;2022-09-14T12:37:28;17.30;99.90
2639;DHT22;1329;51.384;7.122;2022-09-14T12:40:30;17.30;99.90
2639;DHT22;1329;51.384;7.122;2022-09-14T12:46:37;17.30;99.90
2639;DHT22;1329;51.384;7.122;2022-09-14T12:49:27;17.30;99.90
2639;DHT22;1329;51.384;7.122;2022-09-14T12:52:09;17.30;99.90
2639;DHT22;1329;51.384;7.122;2022-09-14T12:55:15;17.20;99.90
2639;DHT22;1329;51.384;7.122;2022-09-14T12:58:03;17.30;99.90
2639;DHT22;1329;51.384;7.122;2022-09-14T13:00:50;17.20;99.90
2639;DHT22;1329;51.384;7.122;2022-09-14T13:03:45;17.20;99.90
2639;DHT22;1329;51.384;7.122;2022-09-14T13:06:15;17.20;99.90
2639;DHT22;1329;51.384;7.122;2022-09-14T13:08:45;17.10;99.90
2639;DHT22;1329;51.384;7.122;2022-09-14T13:11:21;17.10;99.90
2639;DHT22;1329;51.384;7.122;2022-09-14T13:13:51;17.20;99.90
2639;DHT22;1329;51.384;7.122;2022-09-14T13:16:34;17.20;99.90
2639;DHT22;1329;51.384;7.122;2022-09-14T13:19:15;17.20;99.90
2639;DHT22;1329;51.384;7.122;2022-09-14T13:21:46;17.30;99.90
2639;DHT22;1329;51.384;7.122;2022-09-14T13:24:29;17.30;99.90
2639;DHT22;1329;51.384;7.122;2022-09-14T13:27:01;17.30;99.90
2639;DHT22;1329;51.384;7.122;2022-09-14T13:29:29;17.30;99.90
2639;DHT22;1329;51.384;7.122;2022-09-14T13:31:59;17.30;99.90
2639;DHT22;1329;51.384;7.122;2022-09-14T13:34:27;17.30;99.90
2639;DHT22;1329;51.384;7.122;2022-09-14T13:36:55;17.30;99.90
2639;DHT22;1329;51.384;7.122;2022-09-14T13:39:26;17.30;99.90
2639;DHT22;1329;51.384;7.122;2022-09-14T13:41:56;17.30;99.90
2639;DHT22;1329;51.384;7.122;2022-09-14T13:44:26;17.30;99.90
2639;DHT22;1329;51.384;7.122;2022-09-14T13:47:00;17.30;99.90
2639;DHT22;1329;51.384;7.122;2022-09-14T13:49:28;17.30;99.90
2639;DHT22;1329;51.384;7.122;2022-09-14T13:52:17;17.30;99.90
2639;DHT22;1329;51.384;7.122;2022-09-14T13:54:45;17.30;99.90
2639;DHT22;1329;51.384;7.122;2022-09-14T13:57:14;17.30;99.90
2639;DHT22;1329;51.384;7.122;2022-09-14T14:00:03;17.30;99.90
2639;DHT22;1329;51.384;7.122;2022-09-14T14:02:34;17.30;99.90
2639;DHT22;1329;51.384;7.122;2022-09-14T14:05:02;17.30;99.90
2639;DHT22;1329;51.384;7.122;2022-09-14T14:07:31;17.40;99.90
2639;DHT22;1329;51.384;7.122;2022-09-14T14:10:00;17.30;99.90
2639;DHT22;1329;51.384;7.122;2022-09-14T14:12:30;17.40;99.90
2639;DHT22;1329;51.384;7.122;2022-09-14T14:15:03;17.40;99.90
2639;DHT22;1329;51.384;7.122;2022-09-14T14:17:36;17.40;99.90
2639;DHT22;1329;51.384;7.122;2022-09-14T14:20:28;17.40;99.90
2639;DHT22;1329;51.384;7.122;2022-09-14T14:22:59;17.50;99.90
2639;DHT22;1329;51.384;7.122;2022-09-14T14:25:30;17.50;99.90
2639;DHT22;1329;51.384;7.122;2022-09-14T14:28:00;17.60;99.90
2639;DHT22;1329;51.384;7.122;2022-09-14T14:30:29;17.50;99.90
2639;DHT22;1329;51.384;7.122;2022-09-14T14:32:58;17.60;99.90
2639;DHT22;1329;51.384;7.122;2022-09-14T14:35:29;17.60;99.90
2639;DHT22;1329;51.384;7.122;2022-09-14T14:37:57;17.60;99.90
2639;DHT22;1329;51.384;7.122;2022-09-14T14:40:25;17.60;99.90
2639;DHT22;1329;51.384;7.122;2022-09-14T14:42:53;17.70;99.90
2639;DHT22;1329;51.384;7.122;2022-09-14T14:45:23;17.70;99.90
2639;DHT22;1329;51.384;7.122;2022-09-14T14:47:52;17.70;99.90
2639;DHT22;1329;51.384;7.122;2022-09-14T14:50:24;17.80;99.90
2639;DHT22;1329;51.384;7.122;2022-09-14T14:52:52;17.80;99.90
2639;DHT22;1329;51.384;7.122;2022-09-14T14:55:19;17.90;99.90
2639;DHT22;1329;51.384;7.122;2022-09-14T14:57:48;17.90;99.90
2639;DHT22;1329;51.384;7.122;2022-09-14T15:00:19;17.90;99.90
2639;DHT22;1329;51.384;7.122;2022-09-14T15:02:47;18.00;99.90
2639;DHT22;1329;51.384;7.122;2022-09-14T15:05:15;18.00;99.90
2639;DHT22;1329;51.384;7.122;2022-09-14T15:07:44;18.00;99.90
2639;DHT22;1329;51.384;7.122;2022-09-14T15:10:14;18.10;99.90
2639;DHT22;1329;51.384;7.122;2022-09-14T15:12:42;18.10;99.90
2639;DHT22;1329;51.384;7.122;2022-09-14T15:15:12;18.10;99.90
2639;DHT22;1329;51.384;7.122;2022-09-14T15:17:39;18.10;99.90
2639;DHT22;1329;51.384;7.122;2022-09-14T15:20:08;18.10;99.90
2639;DHT22;1329;51.384;7.122;2022-09-14T15:22:38;18.10;99.90
2639;DHT22;1329;51.384;7.122;2022-09-14T15:25:09;18.00;99.90
2639;DHT22;1329;51.384;7.122;2022-09-14T15:27:36;18.00;99.90
2639;DHT22;1329;51.384;7.122;2022-09-14T15:30:05;18.00;99.90
2639;DHT22;1329;51.384;7.122;2022-09-14T15:32:34;18.00;99.90
2639;DHT22;1329;51.384;7.122;2022-09-14T15:35:01;18.00;99.90
2639;DHT22;1329;51.384;7.122;2022-09-14T15:37:28;18.00;99.90
2639;DHT22;1329;51.384;7.122;2022-09-14T15:39:56;18.00;99.90
2639;DHT22;1329;51.384;7.122;2022-09-14T15:42:24;18.00;99.90
2639;DHT22;1329;51.384;7.122;2022-09-14T15:44:52;18.00;99.90
2639;DHT22;1329;51.384;7.122;2022-09-14T15:47:19;18.00;99.90
2639;DHT22;1329;51.384;7.122;2022-09-14T15:49:49;18.00;99.90
2639;DHT22;1329;51.384;7.122;2022-09-14T15:52:17;18.00;99.90
2639;DHT22;1329;51.384;7.122;2022-09-14T15:54:44;18.00;99.90
2639;DHT22;1329;51.384;7.122;2022-09-14T15:57:12;18.00;99.90
2639;DHT22;1329;51.384;7.122;2022-09-14T15:59:44;18.00;99.90
2639;DHT22;1329;51.384;7.122;2022-09-14T16:02:12;18.00;99.90
2639;DHT22;1329;51.384;7.122;2022-09-14T16:04:41;18.10;99.90
2639;DHT22;1329;51.384;7.122;2022-09-14T16:07:11;18.10;99.90
2639;DHT22;1329;51.384;7.122;2022-09-14T16:09:42;18.10;99.90
2639;DHT22;1329;51.384;7.122;2022-09-14T16:12:13;18.00;99.90
2639;DHT22;1329;51.384;7.122;2022-09-14T16:14:42;18.00;99.90
2639;DHT22;1329;51.384;7.122;2022-09-14T16:17:13;18.00;99.90
2639;DHT22;1329;51.384;7.122;2022-09-14T16:19:40;17.90;99.90
2639;DHT22;1329;51.384;7.122;2022-09-14T16:22:08;17.90;99.90
2639;DHT22;1329;51.384;7.122;2022-09-14T16:24:34;17.90;99.90
2639;DHT22;1329;51.384;7.122;2022-09-14T16:27:02;17.90;99.90
2639;DHT22;1329;51.384;7.122;2022-09-14T16:29:29;17.90;99.90
2639;DHT22;1329;51.384;7.122;2022-09-14T16:31:58;17.90;99.90
2639;DHT22;1329;51.384;7.122;2022-09-14T16:34:27;17.90;99.90
2639;DHT22;1329;51.384;7.122;2022-09-14T16:36:55;17.90;99.90
2639;DHT22;1329;51.384;7.122;2022-09-14T16:39:24;17.90;99.90
2639;DHT22;1329;51.384;7.122;2022-09-14T16:41:53;17.90;99.90